createdAt,value
2023-03-15T00:00:11.795Z,97367.50
2023-03-15T00:10:40.945Z,97404.06
2023-03-15T00:20:49.134Z,97441.04
2023-03-15T00:31:04.836Z,97471.89
2023-03-15T00:41:14.031Z,97493.25
2023-03-15T00:51:24.166Z,97504.58
2023-03-15T01:01:32.617Z,97538.95
2023-03-15T01:11:39.805Z,97569.88
2023-03-15T01:21:46.232Z,97584.45
2023-03-15T01:31:53.416Z,97607.17
2023-03-15T01:42:00.545Z,97617.49
2023-03-15T01:52:13.134Z,97651.34
2023-03-15T02:02:22.978Z,97682.38
2023-03-15T02:12:32.965Z,97697.02
2023-03-15T02:22:45.795Z,97723.10
2023-03-15T02:32:53.325Z,97735.41
2023-03-15T02:43:04.699Z,97735.17
2023-03-15T02:53:12.514Z,97743.09
2023-03-15T03:03:19.659Z,97746.88
2023-03-15T03:13:26.699Z,97751.71
2023-03-15T03:23:35.109Z,97772.81
2023-03-15T03:33:42.469Z,97789.99
2023-03-15T03:43:49.660Z,97814.02
2023-03-15T03:53:56.612Z,97825.89
2023-03-15T04:04:03.625Z,97836.77
2023-03-15T04:14:09.467Z,97841.50
2023-03-15T04:24:17.166Z,97838.30
2023-03-15T04:34:28.528Z,97858.55
2023-03-15T04:44:35.531Z,97874.50
2023-03-15T04:54:42.582Z,97865.84
2023-03-15T05:04:49.771Z,97880.61
2023-03-15T05:14:56.861Z,97895.77
2023-03-15T05:25:04.017Z,97903.59
2023-03-15T05:35:10.619Z,97919.27
2023-03-15T05:45:17.815Z,97918.96
2023-03-15T05:55:25.308Z,97933.67
2023-03-15T06:05:32.528Z,97951.34
2023-03-15T06:15:39.793Z,97974.56
2023-03-15T06:25:47.094Z,97981.58
2023-03-15T06:35:54.522Z,97983.12
2023-03-15T06:46:01.787Z,98003.07
2023-03-15T06:56:10.069Z,98045.14
2023-03-15T07:06:17.320Z,98062.31
2023-03-15T07:16:24.059Z,98084.59
2023-03-15T07:26:31.306Z,98091.14
2023-03-15T07:36:38.842Z,98107.13
2023-03-15T07:46:47.365Z,98134.39
2023-03-15T07:56:54.504Z,98148.02
2023-03-15T08:07:01.840Z,98166.88
2023-03-15T08:18:01.838Z,98170.39
2023-03-15T08:28:08.164Z,98169.36
2023-03-15T08:38:15.630Z,98183.57
2023-03-15T08:48:22.866Z,98199.05
2023-03-15T08:58:30.372Z,98199.27
2023-03-15T09:08:37.904Z,98204.81
2023-03-15T09:18:44.514Z,98219.20
2023-03-15T09:38:57.506Z,98233.07
2023-03-15T09:49:03.319Z,98236.09
2023-03-15T09:59:13.751Z,98227.61
2023-03-15T10:09:25.001Z,98218.98
2023-03-15T10:19:31.195Z,98224.90
2023-03-15T10:29:40.062Z,98227.08
2023-03-15T10:39:47.967Z,98233.89
2023-03-15T10:50:00.121Z,98245.63
2023-03-15T11:00:05.825Z,98254.59
2023-03-15T11:10:12.763Z,98267.48
2023-03-15T11:20:22.131Z,98274.27
2023-03-15T11:30:31.738Z,98280.59
2023-03-15T11:40:40.303Z,98283.09
2023-03-15T11:50:47.861Z,98286.75
2023-03-15T12:00:55.147Z,98281.81
2023-03-15T12:11:02.818Z,98283.25
2023-03-15T12:21:15.685Z,98278.92
2023-03-15T12:41:39.566Z,98301.26
2023-03-15T12:51:58.180Z,98299.98
2023-03-15T13:02:18.334Z,98309.50
2023-03-15T13:12:24.287Z,98320.91
2023-03-15T13:22:33.924Z,98334.54
2023-03-15T13:32:41.370Z,98345.10
2023-03-15T13:42:48.466Z,98352.10
2023-03-15T13:52:57.874Z,98358.57
2023-03-15T14:03:07.360Z,98361.85
2023-03-15T14:13:22.631Z,98366.94
2023-03-15T14:23:31.637Z,98368.23
2023-03-15T14:33:41.449Z,98365.58
2023-03-15T14:43:47.714Z,98369.27
2023-03-15T14:53:56.460Z,98372.20
2023-03-15T15:04:05.239Z,98373.77
2023-03-15T15:14:12.419Z,98376.67
2023-03-15T15:24:23.336Z,98373.96
2023-03-15T15:34:34.191Z,98380.49
2023-03-15T15:44:41.359Z,98387.48
2023-03-15T16:04:55.310Z,98418.33
2023-03-15T16:15:03.868Z,98421.38
2023-03-15T16:25:09.146Z,98416.98
2023-03-15T16:35:16.841Z,98424.29
2023-03-15T16:45:25.198Z,98438.94
2023-03-15T16:55:29.878Z,98448.73
2023-03-15T17:05:38.105Z,98455.48
2023-03-15T17:15:45.418Z,98471.77
2023-03-15T17:25:53.557Z,98484.27
2023-03-15T17:36:01.738Z,98497.19
2023-03-15T17:46:06.539Z,98511.70
2023-03-15T17:56:13.817Z,98531.40
2023-03-15T18:06:20.960Z,98536.45
2023-03-15T18:16:28.456Z,98543.42
2023-03-15T18:26:35.804Z,98542.45
2023-03-15T18:36:41.177Z,98546.95
2023-03-15T18:46:48.249Z,98544.98
2023-03-15T18:56:55.504Z,98551.07
2023-03-15T19:07:01.462Z,98561.65
2023-03-15T19:17:07.797Z,98573.80
2023-03-15T19:27:15.677Z,98590.58
2023-03-15T19:37:23.068Z,98600.04
2023-03-15T19:57:36.823Z,98617.93
2023-03-15T20:07:45.324Z,98628.63
2023-03-15T20:17:53.154Z,98635.98
2023-03-15T20:28:00.316Z,98640.45
2023-03-15T20:38:07.340Z,98658.23
2023-03-15T20:48:14.031Z,98662.29
2023-03-15T20:58:21.595Z,98670.95
2023-03-15T21:08:27.989Z,98676.98
2023-03-15T21:18:35.941Z,98691.73
2023-03-15T21:28:43.715Z,98700.92
2023-03-15T21:38:49.934Z,98707.34
2023-03-15T21:48:57.160Z,98709.27
2023-03-15T21:59:04.957Z,98717.83
2023-03-15T22:09:11.385Z,98723.52
2023-03-15T22:19:17.992Z,98734.59
2023-03-15T22:29:25.150Z,98744.08
2023-03-15T22:39:32.399Z,98751.76
2023-03-15T22:49:38.256Z,98754.98
2023-03-15T22:59:44.045Z,98762.30
2023-03-15T23:09:51.691Z,98771.33
2023-03-15T23:19:58.921Z,98787.46
2023-03-15T23:30:05.984Z,98799.54
2023-03-15T23:40:15.764Z,98804.27
2023-03-15T23:50:24.280Z,98816.75
